Tim Peters

Olheiro-Chefe - RB Leipzig
4 Jun 2028
Domingo
Processo

Personalidade

Adaptabilidade (15) Ambição (10) Controvérsia (12) Lealdade (6) Pressão (11) Profissionalismo (1) Espírito Esportivo (13) Temperamento (9)

Perfil

Estilo de Treinamento Democrático
Licença Continental Pro
Determinação 16
Gestão de Pessoas 13
Motivação 10
Disciplina 15
Satisfação no Trabalho
41%
Fadiga
0%
Função Olheiro-Chefe
Salário 19.4K p/s
Contrato 14.03.2029

Desempenho

Comportamento Bom
Eficácia do Treinamento
17%
Desenvolvimento do Jogador
70%
Prevenção de Lesões
80%
Implementação Tática
60%

Eventos Recentes

Avaliou um jogador agora
Avaliou um jogador agora
Aniversário 7d atrás

Monitorando agora

88
Jogador Clube Status Habilidade Confiança Observado Última observação Último voto
Igor Tyjon Salford City Ativo 121 / 116 40% 2 03.06.2028 -
Konstantinos Karetsas Borussia Dortmund Ativo 143 / 127 40% 1 03.06.2028 -
Jaydee Canvot Crystal Palace Ativo 146 / 150 40% 3 01.06.2028 -
Andrija Bulatović RC Lens Ativo 132 / 127 40% 2 01.06.2028 -
Dória VfB Stuttgart Ativo 140 / 137 55% 1 01.06.2028 -
Diego León Ferencvaros Ativo 119 / 137 40% 1 31.01.2028 -
Bahmed Deuff FC Metz Ativo 125 / 127 40% 1 30.01.2028 -
Kenan Busuladžić Halmstad Ativo 121 / 111 40% 1 30.01.2028 -
Fodé Sylla Sion Ativo 125 / 126 40% 2 29.01.2028 -
Honest Ahanor Fiorentina Ativo 135 / 134 40% 1 29.01.2028 -
Pau Cubarsí Barcelona Ativo 170 / 172 40% 2 28.01.2028 -
Cheveyo Tsawa Club Brugge Ativo 116 / 125 40% 1 27.01.2028 -
Lewis Miley Leicester City Ativo 146 / 146 40% 2 26.01.2028 -
Izan Merino Málaga Ativo 125 / 135 40% 1 26.01.2028 -
Jens Mathijsen Willem II Ativo 110 / 114 40% 1 25.01.2028 -
Lucas Høgsberg RC Strasbourg Ativo 136 / 148 40% 1 18.01.2028 -
Ronan Kpakio Cardiff City Ativo 112 / 125 40% 1 18.01.2028 -
Daniel Banjaqui Benfica Ativo 111 / 132 40% 3 10.01.2028 -
Victor Froholdt Porto Ativo 163 / 154 40% 1 06.01.2028 -
Illaijh de Ruijter ADO Den Haag Ativo 121 / 119 40% 1 06.01.2028 -
Givairo Read Feyenoord Ativo 140 / 149 40% 2 04.01.2028 -
Harry Amass Manchester United Ativo 148 / 149 40% 1 04.01.2028 -
Luka Vušković Brighton Ativo 146 / 150 40% 1 02.01.2028 -
Mateus Mané Wolverhampton Ativo 138 / 138 40% 1 31.08.2027 -
Filip Rózga Austria Wien Ativo 111 / 120 40% 1 28.08.2027 -
Endrick Real Madrid Ativo 160 / 161 40% 2 27.08.2027 -
Caleb Yirenkyi Coventry City Ativo 135 / 152 40% 2 27.08.2027 -
Dilan Godoy Vélez Ativo 121 / 122 40% 1 25.08.2027 -
Mbekezeli Mbokazi Chicago Fire Ativo 128 / 129 40% 3 23.08.2027 Observar
Clement Bischoff Red Bull Salzburg Ativo 124 / 138 40% 1 21.08.2027 -
Somto Boniface Ipswich Town Ativo 113 / 120 40% 1 20.08.2027 -
Ethan Williams Peterborough United Ativo 108 / 130 40% 1 19.08.2027 -
Robinio Vaz AS Roma Ativo 120 / 133 40% 3 17.08.2027 -
Sergiu Perciun Torino Ativo 106 / 120 40% 2 16.08.2027 -
Claudio Echeverri Manchester City Ativo 121 / 138 40% 3 13.08.2027 -
Lewis Koumas Liverpool Ativo 120 / 132 40% 2 13.08.2027 -
Maduka Okoye Udinese Ativo 153 / 138 40% 1 13.08.2027 -
Henrique Carmo CSKA Moscow Ativo 122 / 132 40% 1 10.08.2027 -
Damola Ajayi Tottenham Ativo 112 / 134 40% 2 09.08.2027 -
Yasin Özcan Aston Villa Ativo 106 / 125 40% 2 08.08.2027 -
Roger Fernandes Manchester City Ativo 146 / 136 40% 2 05.08.2027 -
Niccolò Fortini Fiorentina Ativo 140 / 134 40% 1 05.08.2027 -
Souza Tottenham Ativo 121 / 126 40% 4 02.08.2027 -
Rabby Nzingoula West Bromwich Albion Ativo 119 / 131 40% 1 01.08.2027 -
Morgan Dala New York Red Bulls Ativo 108 / 129 40% 2 31.07.2027 -
Rayan Bournemouth Ativo 149 / 142 40% 4 31.07.2027 -
Axel Tape Bayer Leverkusen Ativo 125 / 138 40% 7 26.07.2027 -
Seb Ferdinand Arsenal Ativo 112 / 122 40% 1 26.07.2027 -
Alejandro Almaraz Oviedo Ativo 119 / 124 40% 4 22.07.2027 -
Mateo Aguiar Defensa y Justicia Ativo 114 / 129 40% 1 22.07.2027 -
Ollie Scarles West Ham United Ativo 143 / 130 40% 6 19.07.2027 -
Sabil Hansen Randers Ativo 93 / 101 40% 3 17.07.2027 -
Mohamadou Kanté West Ham United Ativo 128 / 126 40% 2 17.07.2027 -
Noah Streit CF Montreal Ativo 111 / 114 40% 2 14.07.2027 -
Joel Canchimbo Barranquilla Ativo 117 / 115 40% 2 13.07.2027 -
Amir Mohammad Razzaghinia Esteghlal Ativo 97 / 117 40% 1 11.07.2027 -
Joseph Opoku Swansea City Ativo 112 / 129 40% 1 08.07.2027 -
Vitor Reis Manchester City Ativo 145 / 133 40% 2 06.07.2027 -
Ishé Samuels-Smith Chelsea Ativo 126 / 128 40% 1 04.07.2027 -
Juan Cruz Cortazzo Gimnasia La Plata Ativo 98 / 122 40% 3 30.06.2027 -
Gaku Nawata Gamba Osaka Ativo 109 / 120 40% 1 29.06.2027 -
Dylan Gorosito Boca Juniors Ativo 109 / 120 40% 1 24.06.2027 -
George Abbott Tottenham Ativo 126 / 120 40% 1 24.06.2027 -
Brandon Powell Blackburn Rovers Ativo 98 / 111 40% 1 17.06.2027 -
Kevin Stöger Borussia Mönchengladbach Ativo 140 / 143 55% 1 06.06.2027 -
Gonzalo Crettaz NEC Ativo 136 / 130 40% 1 03.06.2027 -
Arjan Malić Sturm Graz Ativo 106 / 113 40% 3 29.01.2027 -
Yussif Saidu Zaragoza Ativo 119 / 124 40% 1 28.01.2027 -
José Neto Alverca Ativo 109 / 117 40% 1 27.01.2027 Mais informações
Eliás Montiel Athletic Bilbao Ativo 118 / 126 40% 1 25.01.2027 Mais informações
Ivan M'Bahia Clermont Foot Ativo 119 / 123 40% 1 22.01.2027 -
Milan Roganović Partizan Ativo 106 / 104 40% 1 19.01.2027 -
Breno Bidon Corinthians Ativo 123 / 141 40% 1 06.01.2027 -
Juan Giménez Athletic Bilbao Ativo 117 / 116 40% 1 04.01.2027 -
Ignacio Perruzzi San Lorenzo Ativo 113 / 132 40% 1 30.08.2026 -
Jonathan Asp-Jensen Deportivo La Coruña Ativo 116 / 118 40% 1 27.08.2026 -
Keita Kosugi Eintracht Frankfurt Ativo 119 / 130 40% 1 27.08.2026 -
Bobby Clark Derby County Ativo 123 / 124 40% 1 25.08.2026 -
Georginio Rutter Brighton Ativo 150 / 144 40% 1 24.08.2026 -
Can Uzun Eintracht Frankfurt Ativo 143 / 155 40% 1 23.08.2026 -
El Hadji Malick Diouf Brentford Ativo 133 / 150 40% 1 23.08.2026 -
Finn Jeltsch VfB Stuttgart Ativo 136 / 124 40% 1 22.08.2026 Mais informações
Ayyoub Bouaddi Manchester City Ativo 128 / 141 40% 2 20.08.2026 -
Saël Kumbedi VfL Wolfsburg Ativo 117 / 135 40% 1 18.08.2026 -
Juan-José Perea Zurich Ativo 112 / 122 40% 1 17.08.2026 -
Maximilian Mittelstädt VfB Stuttgart Ativo 158 / 151 55% 1 10.08.2026 -
Samuel Marques Grasshopper Ativo 110 / 118 40% 1 02.08.2026 -
Dejan Radonjić SV Ried Ativo 118 / 120 40% 1 02.08.2026 -